sensor_id;sensor_type;location;lat;lon;timestamp;P1;durP1;ratioP1;P2;durP2;ratioP2
64029;SDS011;50277;52.064;4.492;2024-02-28T00:01:31;7.03;;;3.28;;
64029;SDS011;50277;52.064;4.492;2024-02-28T00:03:56;3.75;;;2.90;;
64029;SDS011;50277;52.064;4.492;2024-02-28T00:06:21;4.97;;;3.10;;
64029;SDS011;50277;52.064;4.492;2024-02-28T00:08:47;7.10;;;3.50;;
64029;SDS011;50277;52.064;4.492;2024-02-28T00:11:12;11.57;;;3.58;;
64029;SDS011;50277;52.064;4.492;2024-02-28T00:13:38;3.70;;;2.80;;
64029;SDS011;50277;52.064;4.492;2024-02-28T00:16:03;5.32;;;3.35;;
64029;SDS011;50277;52.064;4.492;2024-02-28T00:18:28;4.10;;;3.13;;
64029;SDS011;50277;52.064;4.492;2024-02-28T00:20:56;4.00;;;2.85;;
64029;SDS011;50277;52.064;4.492;2024-02-28T00:23:21;5.07;;;2.80;;
64029;SDS011;50277;52.064;4.492;2024-02-28T00:25:46;4.63;;;2.97;;
64029;SDS011;50277;52.064;4.492;2024-02-28T00:28:12;4.68;;;3.15;;
64029;SDS011;50277;52.064;4.492;2024-02-28T00:30:37;5.93;;;2.97;;
64029;SDS011;50277;52.064;4.492;2024-02-28T00:33:02;3.13;;;2.83;;
64029;SDS011;50277;52.064;4.492;2024-02-28T00:35:31;4.78;;;2.80;;
64029;SDS011;50277;52.064;4.492;2024-02-28T00:37:58;5.60;;;2.90;;
64029;SDS011;50277;52.064;4.492;2024-02-28T00:40:23;4.88;;;2.85;;
64029;SDS011;50277;52.064;4.492;2024-02-28T00:42:50;5.97;;;2.92;;
64029;SDS011;50277;52.064;4.492;2024-02-28T00:45:16;6.28;;;3.20;;
64029;SDS011;50277;52.064;4.492;2024-02-28T00:47:41;3.25;;;2.55;;
64029;SDS011;50277;52.064;4.492;2024-02-28T00:50:07;6.78;;;3.13;;
64029;SDS011;50277;52.064;4.492;2024-02-28T00:52:32;6.15;;;3.30;;
64029;SDS011;50277;52.064;4.492;2024-02-28T00:54:58;13.52;;;3.15;;
64029;SDS011;50277;52.064;4.492;2024-02-28T00:57:24;6.20;;;3.20;;
64029;SDS011;50277;52.064;4.492;2024-02-28T00:59:50;7.90;;;3.20;;
64029;SDS011;50277;52.064;4.492;2024-02-28T01:02:15;5.53;;;3.28;;
64029;SDS011;50277;52.064;4.492;2024-02-28T01:04:41;6.53;;;3.35;;
64029;SDS011;50277;52.064;4.492;2024-02-28T01:07:06;4.95;;;3.40;;
64029;SDS011;50277;52.064;4.492;2024-02-28T01:09:32;3.25;;;2.95;;
64029;SDS011;50277;52.064;4.492;2024-02-28T01:11:57;7.65;;;3.08;;
64029;SDS011;50277;52.064;4.492;2024-02-28T01:14:22;7.30;;;3.50;;
64029;SDS011;50277;52.064;4.492;2024-02-28T01:16:48;5.78;;;3.50;;
64029;SDS011;50277;52.064;4.492;2024-02-28T01:19:15;7.40;;;3.67;;
64029;SDS011;50277;52.064;4.492;2024-02-28T01:21:41;6.38;;;3.25;;
64029;SDS011;50277;52.064;4.492;2024-02-28T01:24:06;10.75;;;3.78;;
64029;SDS011;50277;52.064;4.492;2024-02-28T01:26:32;4.18;;;2.97;;
64029;SDS011;50277;52.064;4.492;2024-02-28T01:28:57;5.57;;;3.30;;
64029;SDS011;50277;52.064;4.492;2024-02-28T01:31:22;4.13;;;3.03;;
64029;SDS011;50277;52.064;4.492;2024-02-28T01:33:48;8.73;;;3.45;;
64029;SDS011;50277;52.064;4.492;2024-02-28T01:36:13;4.20;;;3.10;;
64029;SDS011;50277;52.064;4.492;2024-02-28T01:38:39;8.77;;;3.20;;
64029;SDS011;50277;52.064;4.492;2024-02-28T01:41:04;5.00;;;3.35;;
64029;SDS011;50277;52.064;4.492;2024-02-28T01:43:30;4.75;;;3.15;;
64029;SDS011;50277;52.064;4.492;2024-02-28T01:45:56;5.70;;;3.30;;
64029;SDS011;50277;52.064;4.492;2024-02-28T01:48:22;9.38;;;4.38;;
64029;SDS011;50277;52.064;4.492;2024-02-28T01:50:47;3.63;;;3.10;;
64029;SDS011;50277;52.064;4.492;2024-02-28T01:53:12;4.70;;;3.13;;
64029;SDS011;50277;52.064;4.492;2024-02-28T01:55:39;4.53;;;3.08;;
64029;SDS011;50277;52.064;4.492;2024-02-28T01:58:05;5.03;;;2.88;;
64029;SDS011;50277;52.064;4.492;2024-02-28T02:00:32;3.72;;;3.40;;
64029;SDS011;50277;52.064;4.492;2024-02-28T02:02:58;5.35;;;3.60;;
64029;SDS011;50277;52.064;4.492;2024-02-28T02:05:25;6.35;;;3.55;;
64029;SDS011;50277;52.064;4.492;2024-02-28T02:07:50;5.00;;;3.10;;
64029;SDS011;50277;52.064;4.492;2024-02-28T02:10:16;4.85;;;3.15;;
64029;SDS011;50277;52.064;4.492;2024-02-28T02:12:41;7.50;;;3.40;;
64029;SDS011;50277;52.064;4.492;2024-02-28T02:15:06;7.00;;;3.67;;
64029;SDS011;50277;52.064;4.492;2024-02-28T02:17:32;7.25;;;3.35;;
64029;SDS011;50277;52.064;4.492;2024-02-28T02:19:57;5.13;;;3.40;;
64029;SDS011;50277;52.064;4.492;2024-02-28T02:22:23;7.00;;;3.95;;
64029;SDS011;50277;52.064;4.492;2024-02-28T02:24:52;5.80;;;3.45;;
64029;SDS011;50277;52.064;4.492;2024-02-28T02:27:17;7.85;;;4.20;;
64029;SDS011;50277;52.064;4.492;2024-02-28T02:29:43;7.78;;;3.50;;
64029;SDS011;50277;52.064;4.492;2024-02-28T02:32:08;8.70;;;5.18;;
64029;SDS011;50277;52.064;4.492;2024-02-28T02:34:33;9.55;;;3.85;;
64029;SDS011;50277;52.064;4.492;2024-02-28T02:36:59;5.65;;;3.85;;
64029;SDS011;50277;52.064;4.492;2024-02-28T02:39:24;6.00;;;3.60;;
64029;SDS011;50277;52.064;4.492;2024-02-28T02:41:50;4.50;;;3.67;;
64029;SDS011;50277;52.064;4.492;2024-02-28T02:44:15;5.75;;;3.60;;
64029;SDS011;50277;52.064;4.492;2024-02-28T02:46:41;6.03;;;3.95;;
64029;SDS011;50277;52.064;4.492;2024-02-28T02:49:06;7.60;;;4.00;;
64029;SDS011;50277;52.064;4.492;2024-02-28T02:51:31;6.10;;;4.20;;
64029;SDS011;50277;52.064;4.492;2024-02-28T02:53:57;4.95;;;3.67;;
64029;SDS011;50277;52.064;4.492;2024-02-28T02:56:22;8.75;;;4.20;;
64029;SDS011;50277;52.064;4.492;2024-02-28T02:58:47;4.15;;;3.75;;
64029;SDS011;50277;52.064;4.492;2024-02-28T03:01:13;6.47;;;4.63;;
64029;SDS011;50277;52.064;4.492;2024-02-28T03:03:38;4.78;;;4.13;;
64029;SDS011;50277;52.064;4.492;2024-02-28T03:06:04;6.10;;;4.57;;
64029;SDS011;50277;52.064;4.492;2024-02-28T03:10:58;8.60;;;4.53;;
64029;SDS011;50277;52.064;4.492;2024-02-28T03:13:23;10.52;;;5.03;;
64029;SDS011;50277;52.064;4.492;2024-02-28T03:15:48;7.43;;;5.05;;
64029;SDS011;50277;52.064;4.492;2024-02-28T03:18:14;9.07;;;5.00;;
64029;SDS011;50277;52.064;4.492;2024-02-28T03:20:39;10.25;;;5.07;;
64029;SDS011;50277;52.064;4.492;2024-02-28T03:23:05;9.38;;;4.70;;
64029;SDS011;50277;52.064;4.492;2024-02-28T03:25:34;9.35;;;4.72;;
64029;SDS011;50277;52.064;4.492;2024-02-28T03:27:59;8.32;;;5.40;;
64029;SDS011;50277;52.064;4.492;2024-02-28T03:30:26;10.23;;;5.80;;
64029;SDS011;50277;52.064;4.492;2024-02-28T03:32:51;9.85;;;5.63;;
64029;SDS011;50277;52.064;4.492;2024-02-28T03:35:16;15.27;;;6.22;;
64029;SDS011;50277;52.064;4.492;2024-02-28T03:37:42;8.45;;;5.45;;
64029;SDS011;50277;52.064;4.492;2024-02-28T03:40:07;9.55;;;5.38;;
64029;SDS011;50277;52.064;4.492;2024-02-28T03:42:33;7.82;;;5.65;;
64029;SDS011;50277;52.064;4.492;2024-02-28T03:44:58;7.55;;;5.72;;
64029;SDS011;50277;52.064;4.492;2024-02-28T03:47:24;11.25;;;5.53;;
64029;SDS011;50277;52.064;4.492;2024-02-28T03:49:50;13.65;;;6.10;;
64029;SDS011;50277;52.064;4.492;2024-02-28T03:52:15;10.35;;;6.47;;
64029;SDS011;50277;52.064;4.492;2024-02-28T03:54:44;7.30;;;5.78;;
64029;SDS011;50277;52.064;4.492;2024-02-28T03:57:09;7.60;;;5.60;;
64029;SDS011;50277;52.064;4.492;2024-02-28T03:59:35;10.48;;;6.50;;
64029;SDS011;50277;52.064;4.492;2024-02-28T04:02:00;7.57;;;6.22;;
64029;SDS011;50277;52.064;4.492;2024-02-28T04:04:25;15.30;;;6.93;;
64029;SDS011;50277;52.064;4.492;2024-02-28T04:06:51;11.52;;;6.22;;
64029;SDS011;50277;52.064;4.492;2024-02-28T04:09:16;13.32;;;6.25;;
64029;SDS011;50277;52.064;4.492;2024-02-28T04:11:42;9.50;;;6.43;;
64029;SDS011;50277;52.064;4.492;2024-02-28T04:14:08;9.15;;;6.90;;
64029;SDS011;50277;52.064;4.492;2024-02-28T04:16:33;9.20;;;6.10;;
64029;SDS011;50277;52.064;4.492;2024-02-28T04:18:58;10.45;;;6.95;;
64029;SDS011;50277;52.064;4.492;2024-02-28T04:21:24;10.90;;;6.65;;
64029;SDS011;50277;52.064;4.492;2024-02-28T04:23:49;15.35;;;7.75;;
64029;SDS011;50277;52.064;4.492;2024-02-28T04:26:15;14.52;;;7.35;;
64029;SDS011;50277;52.064;4.492;2024-02-28T04:28:41;10.65;;;7.18;;
64029;SDS011;50277;52.064;4.492;2024-02-28T04:31:07;16.17;;;7.82;;
64029;SDS011;50277;52.064;4.492;2024-02-28T04:33:32;14.18;;;7.90;;
64029;SDS011;50277;52.064;4.492;2024-02-28T04:35:57;12.10;;;7.78;;
64029;SDS011;50277;52.064;4.492;2024-02-28T04:38:23;12.18;;;7.63;;
64029;SDS011;50277;52.064;4.492;2024-02-28T04:40:48;11.70;;;7.60;;
64029;SDS011;50277;52.064;4.492;2024-02-28T04:43:14;12.45;;;7.57;;
64029;SDS011;50277;52.064;4.492;2024-02-28T04:45:40;15.63;;;8.45;;
64029;SDS011;50277;52.064;4.492;2024-02-28T04:48:05;10.30;;;7.13;;
64029;SDS011;50277;52.064;4.492;2024-02-28T04:50:31;11.27;;;8.23;;
64029;SDS011;50277;52.064;4.492;2024-02-28T04:52:56;11.73;;;7.30;;
64029;SDS011;50277;52.064;4.492;2024-02-28T04:55:22;12.93;;;8.43;;
64029;SDS011;50277;52.064;4.492;2024-02-28T04:57:47;10.38;;;7.60;;
64029;SDS011;50277;52.064;4.492;2024-02-28T05:00:12;10.95;;;7.50;;
64029;SDS011;50277;52.064;4.492;2024-02-28T05:02:38;11.70;;;8.60;;
64029;SDS011;50277;52.064;4.492;2024-02-28T05:05:03;10.68;;;8.43;;
64029;SDS011;50277;52.064;4.492;2024-02-28T05:07:29;12.15;;;8.07;;
64029;SDS011;50277;52.064;4.492;2024-02-28T05:09:54;12.98;;;8.50;;
64029;SDS011;50277;52.064;4.492;2024-02-28T05:12:19;12.77;;;8.93;;
64029;SDS011;50277;52.064;4.492;2024-02-28T05:14:45;12.52;;;7.57;;
64029;SDS011;50277;52.064;4.492;2024-02-28T05:17:10;10.73;;;8.05;;
64029;SDS011;50277;52.064;4.492;2024-02-28T05:19:36;15.00;;;9.60;;
64029;SDS011;50277;52.064;4.492;2024-02-28T05:22:01;13.18;;;8.43;;
64029;SDS011;50277;52.064;4.492;2024-02-28T05:24:27;12.57;;;9.23;;
64029;SDS011;50277;52.064;4.492;2024-02-28T05:26:53;15.57;;;8.70;;
64029;SDS011;50277;52.064;4.492;2024-02-28T05:29:18;13.40;;;9.05;;
64029;SDS011;50277;52.064;4.492;2024-02-28T05:31:44;18.02;;;9.43;;
64029;SDS011;50277;52.064;4.492;2024-02-28T05:34:09;14.43;;;10.35;;
64029;SDS011;50277;52.064;4.492;2024-02-28T05:36:34;13.60;;;8.55;;
64029;SDS011;50277;52.064;4.492;2024-02-28T05:39:00;13.93;;;8.95;;
64029;SDS011;50277;52.064;4.492;2024-02-28T05:41:30;17.10;;;9.75;;
64029;SDS011;50277;52.064;4.492;2024-02-28T05:43:56;12.13;;;8.70;;
64029;SDS011;50277;52.064;4.492;2024-02-28T05:46:21;16.60;;;8.70;;
64029;SDS011;50277;52.064;4.492;2024-02-28T05:48:47;17.75;;;9.07;;
64029;SDS011;50277;52.064;4.492;2024-02-28T05:51:12;14.73;;;8.93;;
64029;SDS011;50277;52.064;4.492;2024-02-28T05:53:38;15.48;;;9.35;;
64029;SDS011;50277;52.064;4.492;2024-02-28T05:56:04;13.63;;;9.90;;
64029;SDS011;50277;52.064;4.492;2024-02-28T05:58:30;16.52;;;8.88;;
64029;SDS011;50277;52.064;4.492;2024-02-28T06:00:56;12.55;;;9.60;;
64029;SDS011;50277;52.064;4.492;2024-02-28T06:03:21;10.98;;;8.70;;
64029;SDS011;50277;52.064;4.492;2024-02-28T06:05:47;12.88;;;9.10;;
64029;SDS011;50277;52.064;4.492;2024-02-28T06:08:13;13.10;;;9.48;;
64029;SDS011;50277;52.064;4.492;2024-02-28T06:10:38;15.07;;;10.02;;
64029;SDS011;50277;52.064;4.492;2024-02-28T06:13:04;13.55;;;8.77;;
64029;SDS011;50277;52.064;4.492;2024-02-28T06:15:29;13.73;;;9.75;;
64029;SDS011;50277;52.064;4.492;2024-02-28T06:17:58;10.90;;;8.63;;
64029;SDS011;50277;52.064;4.492;2024-02-28T06:20:27;17.15;;;10.35;;
64029;SDS011;50277;52.064;4.492;2024-02-28T06:22:53;13.98;;;9.90;;
64029;SDS011;50277;52.064;4.492;2024-02-28T06:25:18;13.75;;;9.90;;
64029;SDS011;50277;52.064;4.492;2024-02-28T06:27:45;16.40;;;9.68;;
64029;SDS011;50277;52.064;4.492;2024-02-28T06:30:11;14.85;;;9.77;;
64029;SDS011;50277;52.064;4.492;2024-02-28T06:32:39;18.00;;;10.32;;
64029;SDS011;50277;52.064;4.492;2024-02-28T06:35:05;15.77;;;10.35;;
64029;SDS011;50277;52.064;4.492;2024-02-28T06:37:32;17.45;;;10.82;;
64029;SDS011;50277;52.064;4.492;2024-02-28T06:39:57;17.40;;;9.90;;
64029;SDS011;50277;52.064;4.492;2024-02-28T06:42:23;17.60;;;10.63;;
64029;SDS011;50277;52.064;4.492;2024-02-28T06:44:48;16.95;;;10.70;;
64029;SDS011;50277;52.064;4.492;2024-02-28T06:47:13;12.88;;;10.35;;
64029;SDS011;50277;52.064;4.492;2024-02-28T06:49:39;18.15;;;10.63;;
64029;SDS011;50277;52.064;4.492;2024-02-28T06:52:04;20.75;;;12.15;;
64029;SDS011;50277;52.064;4.492;2024-02-28T06:54:30;13.32;;;10.43;;
64029;SDS011;50277;52.064;4.492;2024-02-28T06:56:55;18.92;;;10.23;;
64029;SDS011;50277;52.064;4.492;2024-02-28T06:59:20;14.95;;;10.80;;
64029;SDS011;50277;52.064;4.492;2024-02-28T07:01:46;20.33;;;11.65;;
64029;SDS011;50277;52.064;4.492;2024-02-28T07:04:11;23.90;;;11.88;;
64029;SDS011;50277;52.064;4.492;2024-02-28T07:06:37;17.95;;;10.70;;
64029;SDS011;50277;52.064;4.492;2024-02-28T07:09:02;18.67;;;11.00;;
64029;SDS011;50277;52.064;4.492;2024-02-28T07:11:28;19.52;;;11.57;;
64029;SDS011;50277;52.064;4.492;2024-02-28T07:13:53;18.23;;;10.98;;
64029;SDS011;50277;52.064;4.492;2024-02-28T07:16:19;16.25;;;10.50;;
64029;SDS011;50277;52.064;4.492;2024-02-28T07:18:44;16.38;;;10.90;;
64029;SDS011;50277;52.064;4.492;2024-02-28T07:21:09;14.13;;;10.63;;
64029;SDS011;50277;52.064;4.492;2024-02-28T07:23:35;18.92;;;11.07;;
64029;SDS011;50277;52.064;4.492;2024-02-28T07:26:04;12.52;;;9.57;;
64029;SDS011;50277;52.064;4.492;2024-02-28T07:28:30;17.40;;;11.27;;
64029;SDS011;50277;52.064;4.492;2024-02-28T07:30:56;15.07;;;10.55;;
64029;SDS011;50277;52.064;4.492;2024-02-28T07:33:21;21.20;;;11.63;;
64029;SDS011;50277;52.064;4.492;2024-02-28T07:35:47;16.52;;;11.35;;
64029;SDS011;50277;52.064;4.492;2024-02-28T07:38:12;19.52;;;11.32;;
64029;SDS011;50277;52.064;4.492;2024-02-28T07:40:38;16.55;;;11.05;;
64029;SDS011;50277;52.064;4.492;2024-02-28T07:43:03;21.50;;;12.20;;
64029;SDS011;50277;52.064;4.492;2024-02-28T07:45:28;14.43;;;11.40;;
64029;SDS011;50277;52.064;4.492;2024-02-28T07:47:54;17.60;;;11.65;;
64029;SDS011;50277;52.064;4.492;2024-02-28T07:50:19;15.30;;;11.63;;
64029;SDS011;50277;52.064;4.492;2024-02-28T07:52:45;17.67;;;11.32;;
64029;SDS011;50277;52.064;4.492;2024-02-28T07:55:10;18.15;;;11.85;;
64029;SDS011;50277;52.064;4.492;2024-02-28T07:57:35;16.88;;;11.57;;
64029;SDS011;50277;52.064;4.492;2024-02-28T08:00:01;21.48;;;12.05;;
64029;SDS011;50277;52.064;4.492;2024-02-28T08:02:26;17.67;;;12.07;;
64029;SDS011;50277;52.064;4.492;2024-02-28T08:04:51;19.40;;;11.93;;
64029;SDS011;50277;52.064;4.492;2024-02-28T08:07:17;18.83;;;11.40;;
64029;SDS011;50277;52.064;4.492;2024-02-28T08:09:42;18.42;;;12.35;;
64029;SDS011;50277;52.064;4.492;2024-02-28T08:12:08;17.40;;;12.43;;
64029;SDS011;50277;52.064;4.492;2024-02-28T08:14:33;18.88;;;12.10;;
64029;SDS011;50277;52.064;4.492;2024-02-28T08:16:58;19.35;;;12.65;;
64029;SDS011;50277;52.064;4.492;2024-02-28T08:19:24;19.73;;;12.80;;
64029;SDS011;50277;52.064;4.492;2024-02-28T08:21:49;21.25;;;12.95;;
64029;SDS011;50277;52.064;4.492;2024-02-28T08:24:14;22.75;;;13.65;;
64029;SDS011;50277;52.064;4.492;2024-02-28T08:26:40;25.83;;;13.25;;
64029;SDS011;50277;52.064;4.492;2024-02-28T08:29:07;18.95;;;13.38;;
64029;SDS011;50277;52.064;4.492;2024-02-28T08:31:32;20.40;;;13.32;;
64029;SDS011;50277;52.064;4.492;2024-02-28T08:33:57;23.92;;;14.77;;
64029;SDS011;50277;52.064;4.492;2024-02-28T08:36:23;17.70;;;12.30;;
64029;SDS011;50277;52.064;4.492;2024-02-28T08:38:48;21.33;;;12.85;;
64029;SDS011;50277;52.064;4.492;2024-02-28T08:41:13;21.60;;;12.88;;
64029;SDS011;50277;52.064;4.492;2024-02-28T08:43:39;20.25;;;13.32;;
64029;SDS011;50277;52.064;4.492;2024-02-28T08:46:05;18.88;;;13.80;;
64029;SDS011;50277;52.064;4.492;2024-02-28T08:48:31;21.88;;;14.43;;
64029;SDS011;50277;52.064;4.492;2024-02-28T08:50:57;21.63;;;14.18;;
64029;SDS011;50277;52.064;4.492;2024-02-28T08:53:22;21.50;;;14.18;;
64029;SDS011;50277;52.064;4.492;2024-02-28T08:55:47;20.65;;;12.93;;
64029;SDS011;50277;52.064;4.492;2024-02-28T08:58:13;19.35;;;11.95;;
64029;SDS011;50277;52.064;4.492;2024-02-28T09:00:38;17.85;;;13.90;;
64029;SDS011;50277;52.064;4.492;2024-02-28T09:03:04;28.95;;;13.32;;
64029;SDS011;50277;52.064;4.492;2024-02-28T09:05:29;23.00;;;13.45;;
64029;SDS011;50277;52.064;4.492;2024-02-28T09:07:55;19.80;;;13.48;;
64029;SDS011;50277;52.064;4.492;2024-02-28T09:10:22;22.08;;;13.68;;
64029;SDS011;50277;52.064;4.492;2024-02-28T09:12:49;18.20;;;12.77;;
64029;SDS011;50277;52.064;4.492;2024-02-28T09:15:17;25.48;;;13.68;;
64029;SDS011;50277;52.064;4.492;2024-02-28T09:17:43;16.10;;;13.10;;
64029;SDS011;50277;52.064;4.492;2024-02-28T09:20:08;16.90;;;13.13;;
64029;SDS011;50277;52.064;4.492;2024-02-28T09:22:34;19.13;;;12.50;;
64029;SDS011;50277;52.064;4.492;2024-02-28T09:25:00;19.10;;;12.88;;
64029;SDS011;50277;52.064;4.492;2024-02-28T09:29:54;20.80;;;13.43;;
64029;SDS011;50277;52.064;4.492;2024-02-28T09:32:19;18.10;;;12.65;;
64029;SDS011;50277;52.064;4.492;2024-02-28T09:34:45;20.05;;;13.40;;
64029;SDS011;50277;52.064;4.492;2024-02-28T09:37:10;21.23;;;12.57;;
64029;SDS011;50277;52.064;4.492;2024-02-28T09:39:38;19.45;;;12.18;;
64029;SDS011;50277;52.064;4.492;2024-02-28T09:42:07;18.63;;;12.50;;
64029;SDS011;50277;52.064;4.492;2024-02-28T09:44:36;20.45;;;12.15;;
64029;SDS011;50277;52.064;4.492;2024-02-28T09:47:01;21.05;;;13.18;;
64029;SDS011;50277;52.064;4.492;2024-02-28T09:49:27;22.77;;;14.02;;
64029;SDS011;50277;52.064;4.492;2024-02-28T09:51:53;15.07;;;12.93;;
64029;SDS011;50277;52.064;4.492;2024-02-28T09:54:19;19.40;;;13.77;;
64029;SDS011;50277;52.064;4.492;2024-02-28T09:56:44;20.70;;;14.30;;
64029;SDS011;50277;52.064;4.492;2024-02-28T09:59:10;22.30;;;14.57;;
64029;SDS011;50277;52.064;4.492;2024-02-28T10:01:37;20.80;;;13.95;;
64029;SDS011;50277;52.064;4.492;2024-02-28T10:04:08;16.02;;;12.75;;
64029;SDS011;50277;52.064;4.492;2024-02-28T10:06:36;22.00;;;13.98;;
64029;SDS011;50277;52.064;4.492;2024-02-28T10:09:01;19.13;;;14.98;;
64029;SDS011;50277;52.064;4.492;2024-02-28T10:11:27;21.17;;;15.10;;
64029;SDS011;50277;52.064;4.492;2024-02-28T10:13:52;25.25;;;16.58;;
64029;SDS011;50277;52.064;4.492;2024-02-28T10:16:20;24.20;;;15.60;;
64029;SDS011;50277;52.064;4.492;2024-02-28T10:18:45;23.70;;;16.23;;
64029;SDS011;50277;52.064;4.492;2024-02-28T10:21:11;28.02;;;16.27;;
64029;SDS011;50277;52.064;4.492;2024-02-28T10:23:41;29.52;;;16.75;;
64029;SDS011;50277;52.064;4.492;2024-02-28T10:26:08;22.98;;;15.85;;
64029;SDS011;50277;52.064;4.492;2024-02-28T10:28:36;24.85;;;15.20;;
64029;SDS011;50277;52.064;4.492;2024-02-28T10:31:08;23.67;;;16.13;;
64029;SDS011;50277;52.064;4.492;2024-02-28T10:33:33;25.88;;;17.20;;
64029;SDS011;50277;52.064;4.492;2024-02-28T10:36:00;25.40;;;16.33;;
64029;SDS011;50277;52.064;4.492;2024-02-28T10:38:27;22.38;;;15.60;;
64029;SDS011;50277;52.064;4.492;2024-02-28T10:40:53;18.55;;;15.35;;
64029;SDS011;50277;52.064;4.492;2024-02-28T10:43:19;23.92;;;16.27;;
64029;SDS011;50277;52.064;4.492;2024-02-28T10:45:45;22.88;;;14.88;;
64029;SDS011;50277;52.064;4.492;2024-02-28T10:48:11;21.98;;;15.35;;
64029;SDS011;50277;52.064;4.492;2024-02-28T10:50:39;24.25;;;15.60;;
64029;SDS011;50277;52.064;4.492;2024-02-28T10:53:04;23.58;;;15.18;;
64029;SDS011;50277;52.064;4.492;2024-02-28T10:55:38;21.70;;;16.30;;
64029;SDS011;50277;52.064;4.492;2024-02-28T11:00:32;22.55;;;15.80;;
64029;SDS011;50277;52.064;4.492;2024-02-28T11:02:59;24.55;;;15.68;;
64029;SDS011;50277;52.064;4.492;2024-02-28T11:05:35;23.63;;;15.30;;
64029;SDS011;50277;52.064;4.492;2024-02-28T11:08:05;25.95;;;16.55;;
64029;SDS011;50277;52.064;4.492;2024-02-28T11:10:34;22.55;;;16.40;;
64029;SDS011;50277;52.064;4.492;2024-02-28T11:13:00;22.77;;;16.13;;
64029;SDS011;50277;52.064;4.492;2024-02-28T11:15:25;19.48;;;14.85;;
64029;SDS011;50277;52.064;4.492;2024-02-28T11:17:53;24.00;;;14.68;;
64029;SDS011;50277;52.064;4.492;2024-02-28T11:20:19;23.17;;;14.32;;
64029;SDS011;50277;52.064;4.492;2024-02-28T11:22:45;23.45;;;14.88;;
64029;SDS011;50277;52.064;4.492;2024-02-28T11:25:10;21.02;;;14.32;;
64029;SDS011;50277;52.064;4.492;2024-02-28T11:27:45;19.38;;;13.80;;
64029;SDS011;50277;52.064;4.492;2024-02-28T11:30:13;25.08;;;14.05;;
64029;SDS011;50277;52.064;4.492;2024-02-28T11:32:40;21.05;;;13.77;;
64029;SDS011;50277;52.064;4.492;2024-02-28T11:35:05;16.23;;;12.60;;
64029;SDS011;50277;52.064;4.492;2024-02-28T11:37:31;15.82;;;12.95;;
64029;SDS011;50277;52.064;4.492;2024-02-28T11:39:57;18.30;;;12.68;;
64029;SDS011;50277;52.064;4.492;2024-02-28T11:42:22;18.00;;;13.38;;
64029;SDS011;50277;52.064;4.492;2024-02-28T11:44:54;20.17;;;12.73;;
64029;SDS011;50277;52.064;4.492;2024-02-28T11:47:20;18.30;;;12.75;;
64029;SDS011;50277;52.064;4.492;2024-02-28T11:49:47;15.90;;;10.50;;
64029;SDS011;50277;52.064;4.492;2024-02-28T11:52:12;16.60;;;10.77;;
64029;SDS011;50277;52.064;4.492;2024-02-28T11:54:39;13.73;;;10.10;;
64029;SDS011;50277;52.064;4.492;2024-02-28T11:57:04;16.80;;;10.65;;
64029;SDS011;50277;52.064;4.492;2024-02-28T11:59:31;17.23;;;10.70;;
64029;SDS011;50277;52.064;4.492;2024-02-28T12:01:56;14.32;;;10.02;;
64029;SDS011;50277;52.064;4.492;2024-02-28T12:04:23;17.42;;;10.63;;
64029;SDS011;50277;52.064;4.492;2024-02-28T12:06:49;16.38;;;10.10;;
64029;SDS011;50277;52.064;4.492;2024-02-28T12:09:14;14.85;;;10.50;;
64029;SDS011;50277;52.064;4.492;2024-02-28T12:11:39;16.05;;;10.88;;
64029;SDS011;50277;52.064;4.492;2024-02-28T12:14:06;15.93;;;10.30;;
64029;SDS011;50277;52.064;4.492;2024-02-28T12:16:34;15.60;;;11.07;;
64029;SDS011;50277;52.064;4.492;2024-02-28T12:19:02;19.42;;;12.15;;
64029;SDS011;50277;52.064;4.492;2024-02-28T12:21:29;20.27;;;14.43;;
64029;SDS011;50277;52.064;4.492;2024-02-28T12:23:55;33.75;;;18.73;;
64029;SDS011;50277;52.064;4.492;2024-02-28T12:26:21;24.00;;;17.05;;
64029;SDS011;50277;52.064;4.492;2024-02-28T12:28:47;31.25;;;20.42;;
64029;SDS011;50277;52.064;4.492;2024-02-28T12:31:12;36.78;;;22.02;;
64029;SDS011;50277;52.064;4.492;2024-02-28T12:33:38;30.77;;;20.23;;
64029;SDS011;50277;52.064;4.492;2024-02-28T12:36:04;33.92;;;20.23;;
64029;SDS011;50277;52.064;4.492;2024-02-28T12:38:30;33.88;;;21.40;;
64029;SDS011;50277;52.064;4.492;2024-02-28T12:40:55;35.08;;;21.60;;
64029;SDS011;50277;52.064;4.492;2024-02-28T12:43:21;28.65;;;20.52;;
64029;SDS011;50277;52.064;4.492;2024-02-28T12:45:48;33.30;;;20.23;;
64029;SDS011;50277;52.064;4.492;2024-02-28T12:48:13;39.05;;;21.52;;
64029;SDS011;50277;52.064;4.492;2024-02-28T12:50:38;33.00;;;20.70;;
64029;SDS011;50277;52.064;4.492;2024-02-28T12:53:04;30.15;;;20.63;;
64029;SDS011;50277;52.064;4.492;2024-02-28T12:55:30;28.95;;;19.92;;
64029;SDS011;50277;52.064;4.492;2024-02-28T12:57:56;33.47;;;20.02;;
64029;SDS011;50277;52.064;4.492;2024-02-28T13:00:21;32.97;;;20.08;;
64029;SDS011;50277;52.064;4.492;2024-02-28T13:02:46;31.50;;;19.58;;
64029;SDS011;50277;52.064;4.492;2024-02-28T13:05:12;33.95;;;20.83;;
64029;SDS011;50277;52.064;4.492;2024-02-28T13:07:40;36.60;;;22.27;;
64029;SDS011;50277;52.064;4.492;2024-02-28T13:10:06;29.52;;;20.23;;
64029;SDS011;50277;52.064;4.492;2024-02-28T13:12:32;35.15;;;21.98;;
64029;SDS011;50277;52.064;4.492;2024-02-28T13:14:58;33.80;;;22.52;;
64029;SDS011;50277;52.064;4.492;2024-02-28T13:17:23;28.67;;;19.98;;
64029;SDS011;50277;52.064;4.492;2024-02-28T13:19:49;34.08;;;22.73;;
64029;SDS011;50277;52.064;4.492;2024-02-28T13:22:14;38.08;;;22.58;;
64029;SDS011;50277;52.064;4.492;2024-02-28T13:24:39;40.28;;;21.75;;
64029;SDS011;50277;52.064;4.492;2024-02-28T13:27:05;33.75;;;22.42;;
64029;SDS011;50277;52.064;4.492;2024-02-28T13:29:30;35.13;;;22.33;;
64029;SDS011;50277;52.064;4.492;2024-02-28T13:31:57;30.02;;;20.80;;
64029;SDS011;50277;52.064;4.492;2024-02-28T13:34:23;32.38;;;21.00;;
64029;SDS011;50277;52.064;4.492;2024-02-28T13:36:48;33.63;;;21.08;;
64029;SDS011;50277;52.064;4.492;2024-02-28T13:39:13;30.50;;;20.08;;
64029;SDS011;50277;52.064;4.492;2024-02-28T13:41:39;29.85;;;19.35;;
64029;SDS011;50277;52.064;4.492;2024-02-28T13:44:04;30.05;;;18.95;;
64029;SDS011;50277;52.064;4.492;2024-02-28T13:46:30;25.30;;;19.10;;
64029;SDS011;50277;52.064;4.492;2024-02-28T13:48:57;29.05;;;18.73;;
64029;SDS011;50277;52.064;4.492;2024-02-28T13:51:23;27.08;;;18.48;;
64029;SDS011;50277;52.064;4.492;2024-02-28T13:53:49;26.27;;;19.30;;
64029;SDS011;50277;52.064;4.492;2024-02-28T13:56:17;25.27;;;18.08;;
64029;SDS011;50277;52.064;4.492;2024-02-28T13:58:42;27.40;;;18.83;;
64029;SDS011;50277;52.064;4.492;2024-02-28T14:01:07;26.38;;;18.63;;
64029;SDS011;50277;52.064;4.492;2024-02-28T14:03:33;27.65;;;20.08;;
64029;SDS011;50277;52.064;4.492;2024-02-28T14:05:59;25.05;;;19.13;;
64029;SDS011;50277;52.064;4.492;2024-02-28T14:08:24;31.90;;;20.73;;
64029;SDS011;50277;52.064;4.492;2024-02-28T14:10:49;26.17;;;20.23;;
64029;SDS011;50277;52.064;4.492;2024-02-28T14:13:15;27.95;;;20.85;;
64029;SDS011;50277;52.064;4.492;2024-02-28T14:15:43;36.42;;;22.77;;
64029;SDS011;50277;52.064;4.492;2024-02-28T14:18:08;34.60;;;22.75;;
64029;SDS011;50277;52.064;4.492;2024-02-28T14:20:34;30.13;;;22.65;;
64029;SDS011;50277;52.064;4.492;2024-02-28T14:22:59;32.25;;;21.67;;
64029;SDS011;50277;52.064;4.492;2024-02-28T14:25:25;32.72;;;22.67;;
64029;SDS011;50277;52.064;4.492;2024-02-28T14:27:50;28.98;;;20.95;;
64029;SDS011;50277;52.064;4.492;2024-02-28T14:30:16;30.17;;;21.58;;